createdAt,value
2022-11-27T00:00:01.030Z,7.10
2022-11-27T00:02:27.634Z,7.10
2022-11-27T00:04:54.261Z,7.10
2022-11-27T00:07:20.913Z,7.10
2022-11-27T00:09:47.468Z,7.10
2022-11-27T00:12:14.040Z,7.10
2022-11-27T00:14:40.611Z,7.10
2022-11-27T00:17:07.249Z,7.10
2022-11-27T00:19:33.794Z,7.10
2022-11-27T00:22:02.825Z,7.10
2022-11-27T00:24:29.438Z,7.00
2022-11-27T00:26:58.163Z,6.90
2022-11-27T00:29:29.169Z,6.90
2022-11-27T00:31:58.355Z,6.90
2022-11-27T00:34:24.923Z,6.80
2022-11-27T00:36:51.688Z,6.90
2022-11-27T00:39:18.632Z,6.80
2022-11-27T00:41:45.304Z,6.80
2022-11-27T00:44:13.188Z,6.90
2022-11-27T00:46:41.460Z,6.90
2022-11-27T00:49:08.744Z,6.90
2022-11-27T00:51:35.916Z,7.00
2022-11-27T00:54:02.607Z,7.00
2022-11-27T00:56:30.649Z,7.00
2022-11-27T00:58:57.219Z,7.00
2022-11-27T01:01:29.181Z,7.10
2022-11-27T01:03:57.024Z,7.00
2022-11-27T01:06:23.978Z,7.10
2022-11-27T01:08:50.736Z,7.00
2022-11-27T01:11:21.916Z,7.00
2022-11-27T01:13:53.384Z,7.00
2022-11-27T01:16:23.027Z,7.00
2022-11-27T01:18:50.649Z,7.00
2022-11-27T01:21:18.797Z,7.00
2022-11-27T01:23:46.094Z,7.00
2022-11-27T01:26:13.081Z,6.90
2022-11-27T01:28:44.529Z,6.90
2022-11-27T01:31:12.920Z,7.00
2022-11-27T01:33:39.770Z,7.00
2022-11-27T01:36:09.380Z,7.00
2022-11-27T01:38:38.392Z,7.00
2022-11-27T01:41:07.693Z,6.90
2022-11-27T01:43:40.085Z,6.90
2022-11-27T01:46:12.734Z,6.90
2022-11-27T01:48:39.349Z,6.90
2022-11-27T01:51:08.021Z,6.90
2022-11-27T01:53:34.638Z,6.90
2022-11-27T01:56:01.752Z,6.90
2022-11-27T01:58:29.773Z,6.90
2022-11-27T02:00:56.474Z,6.90
2022-11-27T02:03:25.300Z,6.90
2022-11-27T02:05:51.907Z,6.90
2022-11-27T02:08:20.872Z,6.90
2022-11-27T02:10:55.453Z,6.90
2022-11-27T02:13:22.051Z,6.90
2022-11-27T02:16:01.911Z,6.90
2022-11-27T02:18:48.113Z,6.90
2022-11-27T02:21:33.057Z,6.90
2022-11-27T02:24:08.668Z,6.80
2022-11-27T02:26:46.813Z,6.80
2022-11-27T02:29:14.413Z,6.80
2022-11-27T02:31:51.723Z,6.80
2022-11-27T02:34:27.052Z,6.80
2022-11-27T02:36:58.307Z,6.80
2022-11-27T02:39:27.183Z,6.80
2022-11-27T02:41:59.634Z,6.80
2022-11-27T02:44:27.677Z,6.80
2022-11-27T02:46:54.671Z,6.80
2022-11-27T02:49:24.375Z,6.80
2022-11-27T02:51:56.396Z,6.80
2022-11-27T02:54:29.255Z,6.70
2022-11-27T02:56:56.863Z,6.80
2022-11-27T02:59:24.413Z,6.80
2022-11-27T03:01:57.235Z,6.80
2022-11-27T03:04:29.931Z,6.70
2022-11-27T03:06:57.596Z,6.70
2022-11-27T03:09:26.340Z,6.70
2022-11-27T03:11:55.581Z,6.70
2022-11-27T03:14:24.651Z,6.70
2022-11-27T03:16:58.077Z,6.70
2022-11-27T03:19:45.723Z,6.60
2022-11-27T03:22:12.416Z,6.60
2022-11-27T03:24:41.552Z,6.50
2022-11-27T03:27:09.054Z,6.50
2022-11-27T03:30:02.018Z,6.50
2022-11-27T03:32:30.179Z,6.40
2022-11-27T03:34:59.401Z,6.40
2022-11-27T03:37:28.285Z,6.30
2022-11-27T03:39:57.276Z,6.30
2022-11-27T03:42:27.683Z,6.20
2022-11-27T03:45:00.238Z,6.20
2022-11-27T03:47:47.601Z,6.20
2022-11-27T03:50:17.187Z,6.10
2022-11-27T03:52:55.028Z,6.10
2022-11-27T03:55:26.928Z,6.10
2022-11-27T03:57:57.893Z,6.00
2022-11-27T04:00:24.853Z,6.00
2022-11-27T04:02:52.528Z,6.00
2022-11-27T04:05:21.854Z,6.00
2022-11-27T04:07:51.061Z,6.00
2022-11-27T04:10:17.738Z,5.90
2022-11-27T04:12:44.356Z,5.90
2022-11-27T04:15:11.212Z,5.90
2022-11-27T04:17:37.741Z,5.90
2022-11-27T04:20:05.105Z,5.90
2022-11-27T04:22:31.625Z,5.90
2022-11-27T04:24:58.166Z,5.90
2022-11-27T04:27:24.882Z,5.90
2022-11-27T04:29:51.474Z,5.80
2022-11-27T04:32:18.009Z,5.80
2022-11-27T04:34:44.579Z,5.80
2022-11-27T04:37:16.108Z,5.90
2022-11-27T04:39:42.638Z,5.80
2022-11-27T04:42:09.185Z,5.80
2022-11-27T04:44:36.121Z,5.80
2022-11-27T04:47:02.820Z,5.80
2022-11-27T04:49:29.526Z,5.80
2022-11-27T04:51:58.436Z,5.80
2022-11-27T04:54:25.054Z,5.80
2022-11-27T04:56:51.644Z,5.80
2022-11-27T04:59:18.212Z,5.80
2022-11-27T05:01:44.735Z,5.80
2022-11-27T05:04:11.254Z,5.80
2022-11-27T05:06:39.948Z,5.90
2022-11-27T05:09:06.455Z,5.90
2022-11-27T05:11:33.167Z,5.90
2022-11-27T05:14:18.279Z,6.00
2022-11-27T05:16:46.274Z,5.90
2022-11-27T05:19:16.049Z,5.90
2022-11-27T05:21:45.081Z,6.00
2022-11-27T05:24:14.308Z,6.00
2022-11-27T05:26:41.340Z,6.00
2022-11-27T05:29:08.454Z,5.90
2022-11-27T05:31:37.475Z,5.90
2022-11-27T05:34:04.171Z,5.80
2022-11-27T05:36:31.145Z,5.70
2022-11-27T05:38:57.726Z,5.70
2022-11-27T05:41:26.662Z,5.70
2022-11-27T05:43:53.317Z,5.70
2022-11-27T05:46:23.641Z,5.70
2022-11-27T05:48:50.284Z,5.70
2022-11-27T05:51:17.033Z,5.80
2022-11-27T05:53:43.979Z,5.80
2022-11-27T05:56:12.364Z,5.80
2022-11-27T05:58:39.378Z,5.80
2022-11-27T06:01:06.143Z,5.80
2022-11-27T06:03:32.951Z,5.80
2022-11-27T06:06:04.875Z,5.80
2022-11-27T06:08:31.415Z,5.80
2022-11-27T06:11:00.210Z,5.80
2022-11-27T06:13:26.737Z,5.80
2022-11-27T06:15:55.651Z,5.90
2022-11-27T06:18:22.192Z,5.80
2022-11-27T06:20:52.878Z,5.90
2022-11-27T06:23:19.709Z,5.90
2022-11-27T06:25:46.303Z,5.90
2022-11-27T06:28:15.294Z,6.00
2022-11-27T06:30:41.851Z,6.00
2022-11-27T06:33:10.695Z,6.00
2022-11-27T06:35:37.242Z,6.00
2022-11-27T06:38:03.811Z,6.10
2022-11-27T06:40:32.936Z,6.10
2022-11-27T06:42:59.476Z,6.10
2022-11-27T06:45:26.079Z,6.10
2022-11-27T06:47:52.672Z,6.10
2022-11-27T06:50:19.175Z,6.00
2022-11-27T06:52:45.700Z,6.00
2022-11-27T06:55:12.212Z,6.00
2022-11-27T06:57:41.140Z,6.00
2022-11-27T07:00:08.111Z,6.00
2022-11-27T07:02:34.682Z,5.90
2022-11-27T07:05:01.286Z,5.90
2022-11-27T07:07:27.863Z,5.90
2022-11-27T07:09:56.676Z,5.90
2022-11-27T07:12:23.228Z,5.90
2022-11-27T07:14:49.792Z,5.90
2022-11-27T07:17:18.847Z,5.90
2022-11-27T07:19:45.515Z,6.00
2022-11-27T07:22:12.249Z,5.90
2022-11-27T07:24:39.044Z,5.90
2022-11-27T07:27:05.906Z,5.90
2022-11-27T07:29:32.511Z,6.00
2022-11-27T07:31:59.081Z,6.00
2022-11-27T07:34:25.644Z,5.90
2022-11-27T07:36:52.688Z,5.90
2022-11-27T07:39:39.396Z,6.00
2022-11-27T07:42:37.098Z,6.00
2022-11-27T07:44:57.115Z,6.00
2022-11-27T07:47:23.657Z,6.00
2022-11-27T07:49:50.306Z,6.00
2022-11-27T07:52:16.916Z,5.90
2022-11-27T07:54:46.035Z,5.80
2022-11-27T07:57:12.690Z,5.80
2022-11-27T07:59:46.971Z,5.80
2022-11-27T08:02:16.354Z,5.90
2022-11-27T08:04:43.223Z,6.00
2022-11-27T08:07:12.721Z,5.90
2022-11-27T08:09:41.993Z,5.90
2022-11-27T08:12:11.001Z,5.80
2022-11-27T08:14:40.212Z,5.80
2022-11-27T08:17:06.935Z,5.90
2022-11-27T08:19:33.496Z,5.90
2022-11-27T08:22:00.154Z,6.00
2022-11-27T08:24:26.677Z,5.90
2022-11-27T08:26:53.285Z,6.00
2022-11-27T08:29:22.330Z,6.00
2022-11-27T08:31:51.024Z,6.00
2022-11-27T08:34:19.763Z,5.90
2022-11-27T08:36:46.300Z,6.00
2022-11-27T08:39:12.808Z,6.00
2022-11-27T08:41:39.471Z,6.00
2022-11-27T08:44:09.588Z,6.00
2022-11-27T08:46:36.597Z,6.00
2022-11-27T08:49:03.207Z,6.10
2022-11-27T08:51:29.786Z,6.20
2022-11-27T08:53:58.496Z,6.20
2022-11-27T08:56:27.356Z,6.20
2022-11-27T08:58:54.083Z,6.20
2022-11-27T09:01:24.903Z,6.20
2022-11-27T09:03:52.972Z,6.30
2022-11-27T09:06:24.303Z,6.30
2022-11-27T09:08:51.245Z,6.30
2022-11-27T09:11:18.949Z,6.20
2022-11-27T09:13:46.148Z,6.20
2022-11-27T09:16:14.908Z,6.10
2022-11-27T09:18:44.429Z,6.20
2022-11-27T09:21:12.109Z,6.20
2022-11-27T09:23:39.620Z,6.20
2022-11-27T09:26:08.028Z,6.30
2022-11-27T09:28:35.017Z,6.30
2022-11-27T09:31:02.644Z,6.30
2022-11-27T09:33:30.276Z,6.30
2022-11-27T09:35:56.914Z,6.40
2022-11-27T09:38:26.246Z,6.50
2022-11-27T09:41:00.432Z,6.50
2022-11-27T09:43:34.466Z,6.40
2022-11-27T09:46:08.224Z,6.30
2022-11-27T09:48:37.477Z,6.40
2022-11-27T09:51:08.766Z,6.50
2022-11-27T09:53:51.898Z,6.50
2022-11-27T09:56:18.793Z,6.40
2022-11-27T09:58:45.306Z,6.40
2022-11-27T10:01:12.992Z,6.40
2022-11-27T10:03:43.462Z,6.30
2022-11-27T10:06:26.124Z,6.30
2022-11-27T10:09:01.906Z,6.30
2022-11-27T10:11:37.489Z,6.40
2022-11-27T10:14:22.432Z,6.40
2022-11-27T10:16:54.121Z,6.40
2022-11-27T10:19:26.676Z,6.30
2022-11-27T10:22:02.239Z,6.30
2022-11-27T10:24:42.158Z,6.30
2022-11-27T10:27:21.889Z,6.40
2022-11-27T10:29:52.347Z,6.50
2022-11-27T10:32:52.834Z,6.50
2022-11-27T10:35:07.324Z,6.40
2022-11-27T10:37:38.527Z,6.30
2022-11-27T10:40:18.665Z,6.30
2022-11-27T10:42:57.132Z,6.30
2022-11-27T10:45:44.376Z,6.30
2022-11-27T10:48:14.031Z,6.30
2022-11-27T10:50:43.024Z,6.20
2022-11-27T10:53:13.241Z,6.20
2022-11-27T10:55:58.352Z,6.20
2022-11-27T10:58:39.338Z,6.20
2022-11-27T11:01:10.381Z,6.30
2022-11-27T11:03:39.054Z,6.40
2022-11-27T11:06:22.715Z,6.40
2022-11-27T11:09:15.066Z,6.40
2022-11-27T11:11:44.305Z,6.50
2022-11-27T11:14:22.701Z,6.50
2022-11-27T11:16:49.672Z,6.60
2022-11-27T11:19:31.323Z,6.70
2022-11-27T11:22:04.725Z,6.60
2022-11-27T11:24:36.902Z,6.60
2022-11-27T11:27:13.883Z,6.50
2022-11-27T11:29:42.040Z,6.50
2022-11-27T11:32:16.275Z,6.50
2022-11-27T11:34:46.655Z,6.50
2022-11-27T11:37:24.619Z,6.50
2022-11-27T11:40:02.083Z,6.60
2022-11-27T11:42:30.358Z,6.60
2022-11-27T11:45:13.167Z,6.70
2022-11-27T11:47:52.006Z,6.80
2022-11-27T11:50:30.578Z,6.80
2022-11-27T11:53:15.912Z,6.90
2022-11-27T11:55:59.175Z,6.90
2022-11-27T11:58:28.436Z,7.00
2022-11-27T12:01:28.856Z,7.00
2022-11-27T12:03:58.610Z,7.10
2022-11-27T12:06:30.723Z,7.10
2022-11-27T12:09:00.459Z,7.10
2022-11-27T12:11:34.772Z,7.20
2022-11-27T12:14:18.380Z,7.20
2022-11-27T12:16:51.968Z,7.30
2022-11-27T12:19:30.588Z,7.30
2022-11-27T12:22:03.326Z,7.40
2022-11-27T12:24:35.789Z,7.40
2022-11-27T12:27:20.653Z,7.40
2022-11-27T12:29:59.384Z,7.40
2022-11-27T12:32:31.971Z,7.40
2022-11-27T12:34:58.464Z,7.50
2022-11-27T12:37:38.570Z,7.50
2022-11-27T12:40:11.766Z,7.50
2022-11-27T12:42:56.843Z,7.70
2022-11-27T12:45:49.836Z,7.80
2022-11-27T12:48:21.945Z,7.90
2022-11-27T12:50:53.424Z,7.90
2022-11-27T12:53:24.959Z,7.90
2022-11-27T12:56:06.620Z,7.90
2022-11-27T12:58:37.333Z,8.00
2022-11-27T13:01:09.839Z,8.00
2022-11-27T13:03:44.696Z,8.00
2022-11-27T13:06:16.251Z,8.10
2022-11-27T13:08:52.551Z,8.10
2022-11-27T13:11:20.470Z,8.10
2022-11-27T13:13:50.041Z,8.20
2022-11-27T13:16:35.722Z,8.20
2022-11-27T13:19:20.508Z,8.20
2022-11-27T13:21:47.529Z,8.20
2022-11-27T13:24:14.407Z,8.30
2022-11-27T13:26:47.004Z,8.30
2022-11-27T13:29:16.998Z,8.30
2022-11-27T13:31:48.466Z,8.30
2022-11-27T13:34:19.694Z,8.30
2022-11-27T13:36:48.300Z,8.30
2022-11-27T13:39:33.971Z,8.30
2022-11-27T13:42:05.958Z,8.20
2022-11-27T13:44:32.973Z,8.20
2022-11-27T13:47:06.280Z,8.20
2022-11-27T13:49:33.974Z,8.20
2022-11-27T13:52:11.534Z,8.10
2022-11-27T13:54:38.616Z,8.10
2022-11-27T13:57:12.213Z,8.10
2022-11-27T13:59:39.652Z,8.00
2022-11-27T14:02:09.082Z,8.00
2022-11-27T14:04:36.133Z,8.00
2022-11-27T14:07:03.514Z,7.90
2022-11-27T14:09:42.610Z,7.90
2022-11-27T14:12:17.464Z,7.90
2022-11-27T14:14:44.998Z,7.90
2022-11-27T14:17:23.746Z,7.90
2022-11-27T14:19:58.888Z,7.90
2022-11-27T14:22:34.392Z,7.90
2022-11-27T14:25:03.076Z,7.80
2022-11-27T14:27:35.003Z,7.80
2022-11-27T14:30:14.135Z,7.80
2022-11-27T14:32:43.205Z,7.80
2022-11-27T14:35:19.841Z,7.80
2022-11-27T14:37:46.424Z,7.80
2022-11-27T14:40:24.721Z,7.80
2022-11-27T14:42:51.343Z,7.80
2022-11-27T14:45:19.673Z,7.70
2022-11-27T14:47:48.295Z,7.70
2022-11-27T14:50:17.727Z,7.70
2022-11-27T14:52:47.055Z,7.70
2022-11-27T14:55:15.180Z,7.60
2022-11-27T14:57:42.551Z,7.70
2022-11-27T15:00:15.009Z,7.60
2022-11-27T15:02:41.830Z,7.60
2022-11-27T15:05:16.768Z,7.60
2022-11-27T15:07:49.370Z,7.60
2022-11-27T15:10:38.988Z,7.70
2022-11-27T15:13:06.979Z,7.60
2022-11-27T15:15:36.947Z,7.60
2022-11-27T15:18:05.058Z,7.60
2022-11-27T15:20:40.666Z,7.60
2022-11-27T15:23:21.361Z,7.60
2022-11-27T15:25:50.143Z,7.60
2022-11-27T15:28:35.906Z,7.60
2022-11-27T15:31:04.179Z,7.50
2022-11-27T15:33:31.692Z,7.50
2022-11-27T15:36:18.555Z,7.50
2022-11-27T15:38:50.681Z,7.60
2022-11-27T15:41:22.349Z,7.50
2022-11-27T15:43:49.022Z,7.50
2022-11-27T15:46:18.188Z,7.50
2022-11-27T15:48:44.784Z,7.50
2022-11-27T15:51:11.325Z,7.50
2022-11-27T15:53:40.369Z,7.50
2022-11-27T15:56:09.650Z,7.50
2022-11-27T15:58:38.680Z,7.50
2022-11-27T16:01:06.135Z,7.50
2022-11-27T16:03:32.723Z,7.50
2022-11-27T16:06:05.556Z,7.50
2022-11-27T16:08:32.352Z,7.50
2022-11-27T16:11:00.026Z,7.50
2022-11-27T16:13:26.587Z,7.50
2022-11-27T16:15:53.111Z,7.50
2022-11-27T16:18:19.654Z,7.50
2022-11-27T16:20:48.589Z,7.40
2022-11-27T16:23:15.114Z,7.30
2022-11-27T16:25:44.079Z,7.40
2022-11-27T16:28:11.148Z,7.40
2022-11-27T16:30:39.924Z,7.30
2022-11-27T16:33:08.702Z,7.30
2022-11-27T16:35:36.180Z,7.40
2022-11-27T16:38:07.601Z,7.40
2022-11-27T16:40:36.403Z,7.40
2022-11-27T16:43:03.578Z,7.40
2022-11-27T16:45:37.322Z,7.30
2022-11-27T16:48:05.785Z,7.30
2022-11-27T16:50:32.477Z,7.30
2022-11-27T16:52:59.033Z,7.20
2022-11-27T16:55:25.818Z,7.20
2022-11-27T16:57:54.782Z,7.20
2022-11-27T17:00:21.419Z,7.20
2022-11-27T17:02:50.126Z,7.20
2022-11-27T17:05:19.266Z,7.20
2022-11-27T17:07:48.160Z,7.20
2022-11-27T17:10:17.096Z,7.20
2022-11-27T17:12:43.633Z,7.20
2022-11-27T17:15:10.435Z,7.20
2022-11-27T17:17:40.341Z,7.20
2022-11-27T17:20:09.913Z,7.20
2022-11-27T17:22:41.441Z,7.20
2022-11-27T17:25:11.082Z,7.20
2022-11-27T17:27:37.655Z,7.20
2022-11-27T17:30:04.392Z,7.20
2022-11-27T17:32:30.979Z,7.20
2022-11-27T17:34:57.587Z,7.20
2022-11-27T17:37:24.344Z,7.20
2022-11-27T17:39:51.025Z,7.20
2022-11-27T17:42:22.488Z,7.20
2022-11-27T17:44:50.583Z,7.20
2022-11-27T17:47:17.138Z,7.10
2022-11-27T17:49:43.881Z,7.20
2022-11-27T17:52:12.770Z,7.20
2022-11-27T17:54:41.739Z,7.20
2022-11-27T17:57:10.506Z,7.20
2022-11-27T17:59:39.633Z,7.10
2022-11-27T18:02:06.978Z,7.10
2022-11-27T18:04:33.793Z,7.10
2022-11-27T18:07:00.422Z,7.20
2022-11-27T18:09:27.027Z,7.10
2022-11-27T18:11:57.248Z,7.10
2022-11-27T18:14:23.843Z,7.10
2022-11-27T18:16:56.461Z,7.10
2022-11-27T18:19:25.256Z,7.00
2022-11-27T18:21:51.884Z,7.00
2022-11-27T18:24:23.635Z,6.90
2022-11-27T18:27:08.534Z,6.90
2022-11-27T18:29:40.565Z,6.80
2022-11-27T18:32:10.152Z,6.90
2022-11-27T18:34:37.093Z,6.90
2022-11-27T18:37:03.882Z,6.90
2022-11-27T18:39:33.007Z,6.80
2022-11-27T18:41:59.577Z,6.90
2022-11-27T18:44:26.753Z,6.90
2022-11-27T18:46:53.449Z,6.80
2022-11-27T18:49:22.644Z,6.80
2022-11-27T18:51:50.163Z,6.80
2022-11-27T18:54:16.952Z,6.80
2022-11-27T18:56:43.532Z,6.80
2022-11-27T18:59:13.214Z,6.80
2022-11-27T19:01:42.339Z,6.90
2022-11-27T19:04:12.201Z,6.80
2022-11-27T19:06:39.172Z,6.90
2022-11-27T19:09:08.353Z,6.90
2022-11-27T19:11:37.586Z,6.80
2022-11-27T19:14:07.195Z,6.80
2022-11-27T19:16:35.373Z,6.80
2022-11-27T19:19:04.973Z,6.80
2022-11-27T19:21:32.417Z,6.90
2022-11-27T19:23:59.769Z,6.90
2022-11-27T19:26:31.135Z,6.90
2022-11-27T19:28:58.677Z,6.90
2022-11-27T19:31:25.873Z,6.90
2022-11-27T19:33:56.272Z,7.00
2022-11-27T19:36:25.757Z,6.90
2022-11-27T19:38:57.202Z,6.90
2022-11-27T19:41:24.264Z,6.90
2022-11-27T19:43:51.030Z,6.80
2022-11-27T19:46:20.732Z,6.70
2022-11-27T19:48:48.161Z,6.70
2022-11-27T19:51:15.133Z,6.70
2022-11-27T19:53:41.906Z,6.70
2022-11-27T19:56:11.360Z,6.70
2022-11-27T19:58:38.299Z,6.70
2022-11-27T20:01:11.088Z,6.70
2022-11-27T20:03:38.164Z,6.70
2022-11-27T20:06:08.443Z,6.70
2022-11-27T20:08:35.057Z,6.70
2022-11-27T20:11:04.211Z,6.70
2022-11-27T20:13:30.794Z,6.60
2022-11-27T20:15:59.586Z,6.50
2022-11-27T20:18:27.896Z,6.60
2022-11-27T20:21:11.306Z,6.50
2022-11-27T20:23:38.221Z,6.50
2022-11-27T20:26:09.066Z,6.60
2022-11-27T20:28:41.457Z,6.50
2022-11-27T20:31:12.545Z,6.60
2022-11-27T20:33:39.115Z,6.60
2022-11-27T20:36:18.219Z,6.60
2022-11-27T20:38:44.821Z,6.60
2022-11-27T20:41:12.742Z,6.50
2022-11-27T20:43:39.375Z,6.50
2022-11-27T20:46:07.567Z,6.50
2022-11-27T20:48:36.421Z,6.50
2022-11-27T20:51:13.613Z,6.40
2022-11-27T20:53:43.584Z,6.50
2022-11-27T20:56:13.356Z,6.40
2022-11-27T20:58:40.557Z,6.40
2022-11-27T21:01:26.113Z,6.30
2022-11-27T21:03:53.449Z,6.30
2022-11-27T21:06:21.438Z,6.20
2022-11-27T21:08:48.179Z,6.20
2022-11-27T21:11:14.767Z,6.30
2022-11-27T21:13:41.566Z,6.30
2022-11-27T21:16:13.444Z,6.20
2022-11-27T21:18:40.304Z,6.20
2022-11-27T21:21:11.726Z,6.30
2022-11-27T21:23:41.436Z,6.30
2022-11-27T21:26:11.207Z,6.30
2022-11-27T21:28:40.519Z,6.40
2022-11-27T21:31:10.679Z,6.40
2022-11-27T21:33:37.445Z,6.40
2022-11-27T21:36:04.412Z,6.40
2022-11-27T21:38:30.950Z,6.30
2022-11-27T21:40:57.466Z,6.40
2022-11-27T21:43:24.095Z,6.40
2022-11-27T21:45:50.706Z,6.40
2022-11-27T21:48:19.841Z,6.40
2022-11-27T21:50:46.527Z,6.30
2022-11-27T21:53:15.595Z,6.30
2022-11-27T21:55:42.639Z,6.30
2022-11-27T21:58:11.474Z,6.40
2022-11-27T22:00:38.304Z,6.40
2022-11-27T22:03:04.860Z,6.40
2022-11-27T22:05:31.445Z,6.40
2022-11-27T22:08:00.521Z,6.40
2022-11-27T22:10:29.609Z,6.40
2022-11-27T22:12:56.244Z,6.40
2022-11-27T22:15:22.810Z,6.40
2022-11-27T22:17:51.793Z,6.40
2022-11-27T22:20:18.365Z,6.40
2022-11-27T22:22:47.203Z,6.30
2022-11-27T22:25:14.162Z,6.40
2022-11-27T22:27:42.830Z,6.40
2022-11-27T22:30:09.607Z,6.30
2022-11-27T22:32:38.543Z,6.40
2022-11-27T22:35:05.379Z,6.40
2022-11-27T22:37:31.887Z,6.40
2022-11-27T22:39:58.507Z,6.30
2022-11-27T22:42:25.191Z,6.30
2022-11-27T22:44:51.704Z,6.20
2022-11-27T22:47:18.241Z,6.30
2022-11-27T22:49:44.791Z,6.30
2022-11-27T22:52:13.605Z,6.20
2022-11-27T22:54:40.526Z,6.10
2022-11-27T22:57:07.232Z,6.10
2022-11-27T22:59:36.292Z,6.10
2022-11-27T23:02:03.588Z,6.10
2022-11-27T23:04:30.249Z,6.10
2022-11-27T23:06:56.853Z,6.10
2022-11-27T23:09:26.213Z,6.10
2022-11-27T23:11:56.395Z,6.20
2022-11-27T23:14:23.425Z,6.10
2022-11-27T23:16:50.046Z,6.20
2022-11-27T23:19:16.672Z,6.20
2022-11-27T23:21:43.382Z,6.20
2022-11-27T23:24:11.843Z,6.20
2022-11-27T23:26:43.386Z,6.20
2022-11-27T23:29:10.337Z,6.20
2022-11-27T23:31:37.154Z,6.20
2022-11-27T23:34:07.168Z,6.20
2022-11-27T23:36:33.853Z,6.10
2022-11-27T23:39:02.843Z,6.10
2022-11-27T23:41:29.392Z,6.10
2022-11-27T23:43:56.160Z,6.10
2022-11-27T23:46:26.057Z,6.10
2022-11-27T23:48:56.627Z,6.00
2022-11-27T23:51:24.636Z,6.00
2022-11-27T23:53:51.761Z,6.10
2022-11-27T23:56:19.969Z,6.10
2022-11-27T23:58:47.749Z,6.10
